Rock Springs Sweetwater County Airport
KRKS : now visible

Airfield :











YOU CAN JOIN US ON...

 
LOGIN :

Register | Disclaimer

   EN    FR    IT 

 









Legend :    VFR   Marginal VFR   IFR   Intensive IFR   Very Intensive IFR
Visi :
Ceiling :
>= 8 km
>= 3000ft
5 to 8 km
1000 to 3000 ft
1500m to 5 km
500 to 1000 ft
800 to 1500m
200 to 500 ft
< 800m
< 200 ft
Symbols :   Thunderstorms  Fog  Heavy snow  Heavy precipitations  Wind > 20 kt






- Airport Elevation : 6764 ft
- IATA code : RKS


KRKS - Rock Springs Sweetwater County

CURRENT METAR :
  • 180407Z AUTO 26023G31KT 10SM FEW002 SCT065 05/M06 A2996 RMK AO2 PK WND 26036/0357 T00501061

EXPIRED METARs :
  • 180254Z AUTO 28031G42KT 10SM FEW075 SCT090 BKN110 08/M06 A2990 RMK AO2 PK WND 29043/0238 RAB24E35 PRESRR SLP062 P0000 60000 T00781056 51073
  • 180154Z AUTO 29030G39KT 10SM BKN055 BKN065 OVC100 12/M01 A2984 RMK AO2 PK WND 27042/0123 SLP035 T01171011
  • 180054Z AUTO 29026G36KT 10SM CLR 17/01 A2972 RMK AO2 PK WND 29036/0054 PRESRR SLP990 T01670011
  • 172354Z AUTO 27023G33KT 10SM SCT110 19/01 A2964 RMK AO2 PK WND 28033/2349 RAB43E53 SLP953 P0000 60000 T01890006 10272 20189 53006

TAF KRKS
Valid from the 18 at 00:00 until the 19 at 00:00 UTC


172331Z 1800/1824 28025G35KT P6SM BKN200
FM180300 29022G35KT P6SM BKN150
FM180800 28014G25KT P6SM BKN150
KZLC FIR / North America



MET'MAP, your aeronautical weather chart ! - Copyright ORBIFLY December 2007 - Disclaimer

ORBIFLY MET'MAP TEAM :

Programming & Development : Alexandra Zaïnal
Original concept : Baudouin d'Aumeries
Technical & hardware support : Manuel Goepfert
Assistance : Marc-Olivier Méhu




SOURCES & CREDITS :

   NOAA       Earth
Advisory